Time;durP1;ratioP1;P1;durP2;ratioP2;P2;SDS_P1;SDS_P2;PMS_P1;PMS_P2;Temp;Humidity;BMP_temperature;BMP_pressure;BME280_temperature;BME280_humidity;BME280_pressure;Samples;Min_cycle;Max_cycle;Signal;HPM_P1;HPM_P2
2023/12/18 07:39:08;;;;;;;;;;;;;;;1.19;82.90;101851.81;1088609;46;1929;-77
2023/12/18 13:48:35;;;;;;;;;;;;;;;6.90;64.64;101494.34;1090865;46;1943;-81
2023/12/18 13:50:13;;;;;;;;;;;;;;;6.75;64.95;101493.41;1088647;46;1057;-79
2023/12/18 13:51:32;;;;;;;;;;;;;;;6.72;65.18;101486.44;1088585;46;949;-80
2023/12/18 13:52:33;;;;;;;;;;;;;;;6.70;65.36;101490.16;1088469;46;963;-79
2023/12/18 13:53:36;;;;;;;;;;;;;;;6.68;65.07;101484.03;1088420;54;1852;-77
2023/12/18 13:54:40;;;;;;;;;;;;;;;6.72;65.42;101486.44;1088446;54;1211;-78
2023/12/18 13:55:43;;;;;;;;;;;;;;;6.63;65.39;101492.28;1088475;46;900;-81
2023/12/18 13:56:44;;;;;;;;;;;;;;;6.54;65.58;101488.34;1088052;54;1002;-80
2023/12/18 13:57:48;;;;;;;;;;;;;;;6.64;65.45;101494.00;1088188;47;1306;-80
2023/12/18 13:58:48;;;;;;;;;;;;;;;6.69;65.33;101486.63;1088250;47;1145;-80
2023/12/18 13:59:51;;;;;;;;;;;;;;;6.64;65.63;101490.50;1088337;47;958;-81
2023/12/18 14:00:52;;;;;;;;;;;;;;;6.59;65.76;101481.91;1088309;47;901;-80
2023/12/18 14:01:55;;;;;;;;;;;;;;;6.67;65.79;101488.53;1088319;54;971;-81
2023/12/18 14:02:56;;;;;;;;;;;;;;;6.63;65.90;101486.97;1088342;54;1149;-78
2023/12/18 14:03:56;;;;;;;;;;;;;;;6.66;65.58;101480.66;1088245;46;1010;-78
2023/12/18 14:05:02;;;;;;;;;;;;;;;6.62;65.57;101485.25;1088278;46;1106;-80
2023/12/18 14:06:04;;;;;;;;;;;;;;;6.63;65.72;101484.31;1088614;46;1119;-81
2023/12/18 14:07:10;;;;;;;;;;;;;;;6.61;65.71;101483.56;1088296;54;1044;-81
2023/12/18 14:08:11;;;;;;;;;;;;;;;6.58;65.92;101483.72;1088125;47;1339;-79
2023/12/18 14:09:14;;;;;;;;;;;;;;;6.55;66.13;101479.44;1088168;54;1146;-79
2023/12/18 14:10:15;;;;;;;;;;;;;;;6.53;66.18;101480.44;1088250;46;944;-79
2023/12/18 14:11:16;;;;;;;;;;;;;;;6.55;66.02;101481.22;1088481;54;1456;-79
2023/12/18 14:12:19;;;;;;;;;;;;;;;6.56;65.94;101486.44;1088348;54;1002;-77
2023/12/18 14:13:19;;;;;;;;;;;;;;;6.53;66.26;101481.31;1088183;47;961;-78
2023/12/18 14:14:20;;;;;;;;;;;;;;;6.53;66.00;101485.75;1088251;54;1863;-80
2023/12/18 14:15:24;;;;;;;;;;;;;;;6.56;66.09;101482.94;1088206;54;1012;-79
2023/12/18 14:16:25;;;;;;;;;;;;;;;6.52;66.54;101486.69;1088219;54;1399;-78
2023/12/18 14:17:28;;;;;;;;;;;;;;;6.58;66.23;101483.72;1088245;54;1406;-80
2023/12/18 14:18:31;;;;;;;;;;;;;;;6.56;66.41;101485.59;1088133;54;1118;-77
2023/12/18 14:19:35;;;;;;;;;;;;;;;6.52;66.37;101478.72;1088056;54;1337;-78
2023/12/18 14:20:36;;;;;;;;;;;;;;;6.53;66.63;101480.44;1086969;54;1035;-77
2023/12/18 14:21:39;;;;;;;;;;;;;;;6.54;66.35;101476.84;1086469;47;1146;-76
2023/12/18 14:22:45;;;;;;;;;;;;;;;6.54;66.67;101476.84;1086480;54;1156;-77
2023/12/18 14:23:46;;;;;;;;;;;;;;;6.62;66.18;101477.25;1087862;54;1172;-78
2023/12/18 14:24:49;;;;;;;;;;;;;;;6.70;65.91;101471.53;1087506;54;1001;-79
2023/12/18 14:25:50;;;;;;;;;;;;;;;6.75;66.01;101472.16;1087432;54;1169;-78
2023/12/18 14:26:53;;;;;;;;;;;;;;;6.82;65.98;101472.66;1087209;54;1170;-77
2023/12/18 14:27:54;;;;;;;;;;;;;;;6.83;65.69;101477.91;1087480;54;1338;-77
2023/12/18 14:28:58;;;;;;;;;;;;;;;6.86;65.83;101476.88;1087549;47;1094;-78
2023/12/18 14:29:58;;;;;;;;;;;;;;;6.91;65.49;101468.63;1088201;54;1178;-81
2023/12/18 14:31:03;;;;;;;;;;;;;;;6.93;65.80;101472.91;1088548;54;1037;-80
2023/12/18 14:32:04;;;;;;;;;;;;;;;6.99;65.41;101464.59;1088408;47;1102;-79
2023/12/18 14:33:07;;;;;;;;;;;;;;;6.99;65.47;101472.56;1088373;47;965;-80
2023/12/18 14:34:09;;;;;;;;;;;;;;;7.00;65.44;101458.31;1088506;54;1892;-80
2023/12/18 14:35:19;;;;;;;;;;;;;;;7.06;65.51;101470.41;1088665;46;955;-78
2023/12/18 14:36:20;;;;;;;;;;;;;;;7.11;65.31;101462.19;1088368;46;1036;-78
2023/12/18 14:37:23;;;;;;;;;;;;;;;7.10;65.37;101457.78;1088316;47;1330;-79
2023/12/18 14:38:26;;;;;;;;;;;;;;;7.02;65.52;101463.56;1088141;47;970;-81
2023/12/18 14:39:29;;;;;;;;;;;;;;;6.98;65.33;101462.03;1088267;47;1056;-79
2023/12/18 14:40:30;;;;;;;;;;;;;;;6.96;65.67;101462.13;1088030;54;991;-79
2023/12/18 14:41:33;;;;;;;;;;;;;;;6.96;65.32;101467.44;1088080;54;1055;-80
2023/12/18 14:42:34;;;;;;;;;;;;;;;6.95;65.73;101476.34;1087859;46;967;-80
2023/12/18 14:43:37;;;;;;;;;;;;;;;6.98;65.45;101460.22;1087971;54;1098;-80
2023/12/18 14:44:41;;;;;;;;;;;;;;;7.02;65.49;101460.91;1087991;54;1059;-78
2023/12/18 14:45:42;;;;;;;;;;;;;;;7.07;65.25;101455.34;1088147;47;1007;-80
2023/12/18 14:46:45;;;;;;;;;;;;;;;7.07;65.33;101458.00;1088380;54;974;-79
2023/12/18 14:47:47;;;;;;;;;;;;;;;7.09;65.56;101462.28;1088336;46;1194;-78
2023/12/18 14:48:50;;;;;;;;;;;;;;;7.13;65.46;101458.47;1088223;46;1094;-79
2023/12/18 14:49:50;;;;;;;;;;;;;;;7.15;65.25;101461.06;1087707;54;1030;-78
2023/12/18 14:50:51;;;;;;;;;;;;;;;7.18;65.02;101459.09;1087657;47;1062;-78
2023/12/18 14:51:54;;;;;;;;;;;;;;;7.20;65.12;101458.97;1088160;46;1100;-81
2023/12/18 14:53:03;;;;;;;;;;;;;;;7.16;65.40;101460.97;1087879;54;1165;-79
2023/12/18 14:54:10;;;;;;;;;;;;;;;7.15;65.21;101455.75;1088099;47;1845;-80
2023/12/18 14:55:11;;;;;;;;;;;;;;;7.16;65.07;101457.47;1087868;47;1065;-78
2023/12/18 14:56:16;;;;;;;;;;;;;;;7.16;65.07;101457.47;1088151;47;1094;-78
2023/12/18 14:57:17;;;;;;;;;;;;;;;7.14;65.10;101452.22;1087915;47;1378;-77
2023/12/18 14:58:20;;;;;;;;;;;;;;;7.14;65.28;101448.72;1088039;54;1063;-79
2023/12/18 14:59:21;;;;;;;;;;;;;;;7.14;65.41;101452.22;1088007;46;1007;-78
2023/12/18 15:00:24;;;;;;;;;;;;;;;7.15;65.19;101450.44;1088037;54;935;-79
2023/12/18 15:01:25;;;;;;;;;;;;;;;7.03;65.51;101449.34;1088013;47;943;-79
2023/12/18 15:02:28;;;;;;;;;;;;;;;7.07;65.37;101448.19;1088148;54;1087;-78
2023/12/18 15:03:29;;;;;;;;;;;;;;;7.06;65.24;101449.13;1088186;54;996;-80
2023/12/18 15:04:33;;;;;;;;;;;;;;;7.08;65.53;101449.06;1088091;54;1005;-80
2023/12/18 15:07:49;;;;;;;;;;;;;;;7.02;65.21;101437.81;1087773;54;1230;-79
2023/12/18 15:08:50;;;;;;;;;;;;;;;6.98;65.36;101441.63;1088067;47;958;-79
2023/12/18 15:09:56;;;;;;;;;;;;;;;7.00;65.33;101447.69;1088134;54;1094;-80
2023/12/18 15:10:59;;;;;;;;;;;;;;;7.02;65.61;101440.47;1087995;46;1062;-79
2023/12/18 15:12:02;;;;;;;;;;;;;;;6.96;65.66;101435.53;1088032;54;1050;-78
2023/12/18 15:13:03;;;;;;;;;;;;;;;6.99;65.59;101439.81;1088077;47;1035;-79
2023/12/18 15:14:10;;;;;;;;;;;;;;;7.00;65.46;101437.06;1088132;54;1855;-79
2023/12/18 15:15:11;;;;;;;;;;;;;;;6.96;65.52;101429.34;1088192;47;871;-79
2023/12/18 15:16:17;;;;;;;;;;;;;;;6.94;65.45;101432.09;1088083;54;904;-78
2023/12/18 15:20:44;;;;;;;;;;;;;;;6.82;65.84;101435.44;1088472;54;857;-82
2023/12/18 15:21:45;;;;;;;;;;;;;;;6.80;65.86;101434.69;1088078;47;1066;-81
2023/12/18 15:22:51;;;;;;;;;;;;;;;6.77;66.09;101430.38;1088059;47;1122;-81
2023/12/18 15:23:52;;;;;;;;;;;;;;;6.70;66.17;101440.53;1088081;47;957;-80
2023/12/18 15:24:58;;;;;;;;;;;;;;;6.76;66.30;101436.63;1088052;47;1421;-82
2023/12/18 15:25:59;;;;;;;;;;;;;;;6.79;65.96;101435.63;1088097;54;1009;-81
2023/12/18 15:27:02;;;;;;;;;;;;;;;6.81;66.22;101439.03;1088086;47;927;-80
2023/12/18 15:28:03;;;;;;;;;;;;;;;6.83;66.00;101437.16;1088000;54;1327;-81
2023/12/18 15:29:16;;;;;;;;;;;;;;;6.84;65.99;101442.41;1088139;47;871;-81
2023/12/18 15:30:18;;;;;;;;;;;;;;;6.77;66.12;101445.47;1087917;47;1023;-81
2023/12/18 15:31:28;;;;;;;;;;;;;;;6.74;66.53;101445.66;1087968;46;1129;-81
2023/12/18 15:32:49;;;;;;;;;;;;;;;6.73;66.25;101439.47;1087925;47;1036;-81
2023/12/18 15:35:47;;;;;;;;;;;;;;;6.71;66.42;101446.69;1088100;46;987;-79
2023/12/18 15:36:50;;;;;;;;;;;;;;;6.71;66.39;101439.56;1088322;54;1110;-78
2023/12/18 15:40:09;;;;;;;;;;;;;;;6.64;66.64;101440.00;1088461;54;1002;-79
2023/12/18 15:41:10;;;;;;;;;;;;;;;6.63;66.59;101441.78;1088527;47;1035;-81
2023/12/18 15:42:14;;;;;;;;;;;;;;;6.61;66.72;101441.03;1087940;54;1062;-78
2023/12/18 15:43:15;;;;;;;;;;;;;;;6.60;66.76;101439.31;1087947;47;994;-78
2023/12/18 15:44:18;;;;;;;;;;;;;;;6.56;66.85;101435.94;1087934;54;1049;-82
2023/12/18 15:45:21;;;;;;;;;;;;;;;6.53;66.96;101432.59;1088063;54;1113;-82
2023/12/18 15:46:24;;;;;;;;;;;;;;;6.53;66.85;101435.25;1087960;47;989;-78
2023/12/18 15:47:24;;;;;;;;;;;;;;;6.50;67.29;101433.63;1087777;54;1401;-78
2023/12/18 15:48:28;;;;;;;;;;;;;;;6.48;67.27;101435.50;1087817;47;1128;-78
2023/12/18 15:49:29;;;;;;;;;;;;;;;6.45;67.45;101440.13;1087574;54;1372;-78
2023/12/18 15:50:31;;;;;;;;;;;;;;;6.46;67.47;101432.09;1088017;54;982;-77
2023/12/18 15:51:54;;;;;;;;;;;;;;;6.44;67.24;101430.44;1087933;46;1027;-78
2023/12/18 15:53:10;;;;;;;;;;;;;;;6.39;67.60;101442.19;1087875;54;973;-77
2023/12/18 15:54:14;;;;;;;;;;;;;;;6.29;67.53;101435.66;1087787;47;1854;-78
2023/12/18 15:55:18;;;;;;;;;;;;;;;6.30;67.72;101433.88;1087683;54;1031;-78
2023/12/18 15:56:21;;;;;;;;;;;;;;;6.31;67.56;101439.09;1087729;46;1461;-79
2023/12/18 15:57:23;;;;;;;;;;;;;;;6.34;67.79;101432.75;1087275;54;1307;-78
2023/12/18 15:58:30;;;;;;;;;;;;;;;6.29;67.88;101440.97;1087716;54;998;-79
2023/12/18 15:59:31;;;;;;;;;;;;;;;6.29;67.88;101430.38;1088156;46;946;-79
2023/12/18 16:00:36;;;;;;;;;;;;;;;6.29;67.93;101430.38;1087571;51;1185;-79
2023/12/18 16:01:43;;;;;;;;;;;;;;;6.32;68.12;101432.88;1087723;47;1063;-78
2023/12/18 16:02:48;;;;;;;;;;;;;;;6.29;68.07;101435.66;1087953;54;1072;-77
2023/12/18 16:03:52;;;;;;;;;;;;;;;6.30;68.07;101434.75;1087823;47;1075;-78
2023/12/18 16:04:59;;;;;;;;;;;;;;;6.32;68.11;101434.63;1087386;47;947;-78
2023/12/18 16:06:00;;;;;;;;;;;;;;;6.28;68.02;101439.25;1087388;47;1384;-79
2023/12/18 16:07:04;;;;;;;;;;;;;;;6.29;68.13;101425.03;1087609;46;1080;-78
2023/12/18 16:08:05;;;;;;;;;;;;;;;6.32;68.20;101430.19;1087622;54;1362;-78
2023/12/18 16:09:06;;;;;;;;;;;;;;;6.31;68.19;101439.09;1087909;54;958;-80
2023/12/18 16:10:09;;;;;;;;;;;;;;;6.32;68.29;101434.63;1087715;54;1035;-79
2023/12/18 16:11:13;;;;;;;;;;;;;;;6.32;68.15;101432.00;1087819;47;1074;-77
2023/12/18 16:12:23;;;;;;;;;;;;;;;6.29;68.28;101430.38;1087640;47;1054;-79
2023/12/18 16:13:24;;;;;;;;;;;;;;;6.21;68.71;101427.25;1087816;47;960;-78
2023/12/18 16:14:30;;;;;;;;;;;;;;;6.16;68.76;101430.16;1087367;54;1846;-78
2023/12/18 16:15:33;;;;;;;;;;;;;;;6.12;68.90;101422.44;1087241;54;1335;-79
2023/12/18 16:16:38;;;;;;;;;;;;;;;6.05;69.08;101432.53;1087796;47;856;-80
2023/12/18 16:17:39;;;;;;;;;;;;;;;6.05;69.04;101433.38;1087843;54;1251;-80
2023/12/18 16:18:42;;;;;;;;;;;;;;;6.03;69.12;101429.97;1087881;54;974;-79
2023/12/18 16:19:43;;;;;;;;;;;;;;;5.94;69.58;101430.44;1087665;47;987;-81
2023/12/18 16:20:46;;;;;;;;;;;;;;;5.90;69.65;101427.03;1087969;54;1122;-79
2023/12/18 16:21:47;;;;;;;;;;;;;;;5.93;69.47;101431.38;1087900;47;974;-79
2023/12/18 16:22:50;;;;;;;;;;;;;;;5.88;69.85;101428.06;1087917;54;1001;-78
2023/12/18 16:23:51;;;;;;;;;;;;;;;5.88;69.80;101433.38;1087719;47;1097;-78
2023/12/18 16:24:54;;;;;;;;;;;;;;;5.88;69.70;101425.41;1087829;54;1079;-79
2023/12/18 16:25:55;;;;;;;;;;;;;;;5.90;69.60;101423.56;1087638;47;1021;-78
2023/12/18 16:27:02;;;;;;;;;;;;;;;5.90;69.75;101423.56;1087836;47;955;-79
2023/12/18 16:28:03;;;;;;;;;;;;;;;5.87;69.92;101421.91;1087880;54;1380;-80
2023/12/18 16:29:08;;;;;;;;;;;;;;;5.88;69.98;101423.63;1087953;54;943;-80
2023/12/18 16:30:10;;;;;;;;;;;;;;;5.84;69.98;101415.91;1088099;47;1108;-78
2023/12/18 16:31:13;;;;;;;;;;;;;;;5.91;69.66;101419.97;1087944;54;1172;-80
2023/12/18 16:32:14;;;;;;;;;;;;;;;5.91;69.67;101426.13;1088085;47;1481;-79
2023/12/18 16:33:17;;;;;;;;;;;;;;;5.91;69.68;101419.97;1088279;54;1173;-79
2023/12/18 16:34:18;;;;;;;;;;;;;;;5.94;69.62;101422.47;1088275;54;1097;-78
2023/12/18 16:35:22;;;;;;;;;;;;;;;5.82;69.75;101420.44;1088313;54;1126;-79
2023/12/18 16:36:27;;;;;;;;;;;;;;;5.75;70.04;101417.25;1088352;54;1040;-78
2023/12/18 16:37:30;;;;;;;;;;;;;;;5.65;70.24;101424.84;1088377;54;1378;-80
2023/12/18 16:38:31;;;;;;;;;;;;;;;5.63;70.37;101429.38;1088479;46;1003;-79
2023/12/18 16:39:31;;;;;;;;;;;;;;;5.62;70.39;101425.00;1087904;47;1626;-79
2023/12/18 16:40:35;;;;;;;;;;;;;;;5.65;70.41;101418.66;1088380;54;1098;-79
2023/12/18 16:41:37;;;;;;;;;;;;;;;5.61;70.45;101420.63;1088564;54;1107;-80
2023/12/18 16:42:43;;;;;;;;;;;;;;;5.68;70.44;101424.66;1088396;54;1090;-80
2023/12/18 16:43:43;;;;;;;;;;;;;;;5.70;70.12;101420.13;1088407;47;979;-79
2023/12/18 16:44:48;;;;;;;;;;;;;;;5.61;70.22;101423.25;1088291;46;1024;-79
2023/12/18 16:45:49;;;;;;;;;;;;;;;5.66;70.39;101428.34;1088471;46;1019;-77
2023/12/18 16:46:52;;;;;;;;;;;;;;;5.61;70.18;101423.25;1088321;54;982;-79
2023/12/18 16:47:54;;;;;;;;;;;;;;;5.51;70.41;101425.53;1088277;46;1359;-77
2023/12/18 16:48:58;;;;;;;;;;;;;;;5.50;70.54;101430.91;1088173;46;926;-79
2023/12/18 16:49:58;;;;;;;;;;;;;;;5.44;70.60;101435.59;1087944;54;1031;-79
2023/12/18 16:51:02;;;;;;;;;;;;;;;5.40;70.57;101434.03;1088333;46;1056;-82
2023/12/18 16:52:03;;;;;;;;;;;;;;;5.25;71.27;101427.69;1088863;46;1109;-82
2023/12/18 16:53:06;;;;;;;;;;;;;;;5.23;71.25;101423.41;1088669;54;1006;-82
2023/12/18 16:54:08;;;;;;;;;;;;;;;5.03;71.89;101417.31;1088188;47;1110;-80
2023/12/18 16:55:12;;;;;;;;;;;;;;;5.04;72.02;101407.56;1088145;47;1856;-79
2023/12/18 16:56:13;;;;;;;;;;;;;;;5.04;71.93;101411.06;1088487;46;928;-79
2023/12/18 16:57:14;;;;;;;;;;;;;;;5.08;71.78;101403.81;1088376;54;1087;-79
2023/12/18 16:58:20;;;;;;;;;;;;;;;5.13;71.72;101400.00;1088063;54;1127;-79
2023/12/18 16:59:21;;;;;;;;;;;;;;;5.19;71.72;101398.84;1088472;54;1055;-80
2023/12/18 17:00:26;;;;;;;;;;;;;;;5.20;71.38;101399.69;1088387;54;1059;-80
2023/12/18 17:01:29;;;;;;;;;;;;;;;5.25;71.07;101405.63;1088443;54;1044;-81
2023/12/18 17:02:33;;;;;;;;;;;;;;;5.17;71.49;101406.00;1088560;47;935;-80
2023/12/18 17:03:34;;;;;;;;;;;;;;;5.17;71.22;101406.00;1088524;54;1066;-79
2023/12/18 17:04:38;;;;;;;;;;;;;;;5.04;71.69;101397.81;1088218;54;1178;-79
2023/12/18 17:05:39;;;;;;;;;;;;;;;5.01;71.77;101403.25;1088162;46;1143;-80
2023/12/18 17:06:43;;;;;;;;;;;;;;;5.07;71.59;101402.09;1087946;54;1191;-79
2023/12/18 17:07:44;;;;;;;;;;;;;;;5.10;71.54;101402.81;1087969;47;1386;-79
2023/12/18 17:08:47;;;;;;;;;;;;;;;5.13;71.70;101396.53;1088369;47;1111;-80
2023/12/18 17:09:48;;;;;;;;;;;;;;;5.18;71.69;101404.25;1088610;47;1158;-78
2023/12/18 17:10:51;;;;;;;;;;;;;;;5.21;71.45;101398.75;1088397;54;1415;-79
2023/12/18 17:11:52;;;;;;;;;;;;;;;5.18;71.46;101398.94;1088363;46;1107;-78
2023/12/18 17:12:55;;;;;;;;;;;;;;;5.17;71.45;101408.66;1088145;46;1104;-77
2023/12/18 17:13:59;;;;;;;;;;;;;;;5.18;71.48;101398.94;1088232;46;870;-79
2023/12/18 17:15:02;;;;;;;;;;;;;;;5.20;71.47;101397.03;1088024;54;1874;-78
2023/12/18 17:16:04;;;;;;;;;;;;;;;5.19;71.71;101406.81;1088470;47;1180;-78
2023/12/18 17:17:10;;;;;;;;;;;;;;;5.14;71.56;101406.19;1088582;54;889;-80
2023/12/18 17:18:11;;;;;;;;;;;;;;;5.13;71.69;101402.66;1088544;54;1382;-77
2023/12/18 17:19:14;;;;;;;;;;;;;;;5.15;71.47;101411.41;1088396;54;1031;-78
2023/12/18 17:20:15;;;;;;;;;;;;;;;5.13;71.80;101412.41;1088255;54;1154;-78
2023/12/18 17:21:15;;;;;;;;;;;;;;;5.13;71.63;101421.22;1088453;54;1425;-79
2023/12/18 17:22:19;;;;;;;;;;;;;;;5.17;71.77;101413.13;1088247;54;1166;-79
2023/12/18 17:23:19;;;;;;;;;;;;;;;5.17;71.74;101419.28;1088125;51;1170;-79
2023/12/18 17:24:24;;;;;;;;;;;;;;;5.21;71.77;101412.91;1087999;46;1060;-79
2023/12/18 17:25:25;;;;;;;;;;;;;;;5.13;72.00;101413.28;1088167;54;1028;-78
2023/12/18 17:26:28;;;;;;;;;;;;;;;5.14;71.86;101412.34;1088260;54;1011;-79
2023/12/18 17:27:30;;;;;;;;;;;;;;;5.12;72.02;101414.19;1088103;54;1325;-79
2023/12/18 17:28:34;;;;;;;;;;;;;;;5.15;71.74;101413.19;1088171;54;1145;-78
2023/12/18 17:29:39;;;;;;;;;;;;;;;5.01;72.27;101413.88;1088313;47;1075;-78
2023/12/18 17:30:42;;;;;;;;;;;;;;;4.98;72.03;101411.38;1088284;47;1127;-78
2023/12/18 17:31:44;;;;;;;;;;;;;;;5.04;72.05;101405.78;1088271;46;1213;-78
2023/12/18 17:32:47;;;;;;;;;;;;;;;5.01;72.02;101408.56;1088132;54;1130;-78
2023/12/18 17:33:49;;;;;;;;;;;;;;;4.95;72.39;101414.19;1088196;47;1126;-79
2023/12/18 17:34:55;;;;;;;;;;;;;;;4.99;72.43;101405.16;1088417;47;1853;-77
2023/12/18 17:35:57;;;;;;;;;;;;;;;5.04;72.28;101399.63;1088340;54;1099;-79
2023/12/18 17:37:00;;;;;;;;;;;;;;;5.09;72.18;101398.47;1088322;54;1277;-78
2023/12/18 17:38:01;;;;;;;;;;;;;;;5.09;72.18;101390.50;1088379;46;1247;-77
2023/12/18 17:39:04;;;;;;;;;;;;;;;5.00;72.18;101396.28;1088259;54;918;-78
2023/12/18 17:40:06;;;;;;;;;;;;;;;4.95;72.37;101400.94;1087783;54;1235;-78
2023/12/18 17:41:09;;;;;;;;;;;;;;;4.88;72.46;101402.16;1088305;54;1142;-77
2023/12/18 17:42:09;;;;;;;;;;;;;;;4.92;72.51;101398.41;1088271;54;986;-77
2023/12/18 17:43:13;;;;;;;;;;;;;;;4.92;72.68;101398.41;1088216;54;1122;-76
2023/12/18 17:44:14;;;;;;;;;;;;;;;4.95;72.54;101395.63;1088183;47;1122;-76
2023/12/18 17:45:18;;;;;;;;;;;;;;;4.97;72.35;101407.00;1088230;46;1039;-76
2023/12/18 17:46:22;;;;;;;;;;;;;;;5.01;72.24;101403.25;1088068;47;959;-77
2023/12/18 17:47:22;;;;;;;;;;;;;;;5.00;72.53;101402.41;1088008;47;1350;-76
2023/12/18 17:48:26;;;;;;;;;;;;;;;4.93;72.57;101402.78;1088060;54;1034;-76
2023/12/18 17:49:26;;;;;;;;;;;;;;;4.86;72.84;101398.72;1088182;54;1113;-77
2023/12/18 17:50:29;;;;;;;;;;;;;;;4.74;73.32;101410.78;1088341;46;1018;-77
2023/12/18 17:51:30;;;;;;;;;;;;;;;4.67;73.27;101402.25;1088078;47;964;-77
2023/12/18 17:52:34;;;;;;;;;;;;;;;4.74;72.89;101398.38;1088008;47;1030;-76
2023/12/18 17:53:35;;;;;;;;;;;;;;;4.72;73.17;101397.63;1087563;54;1086;-77
2023/12/18 17:54:38;;;;;;;;;;;;;;;4.77;73.27;101389.44;1087675;54;1133;-78
2023/12/18 17:55:40;;;;;;;;;;;;;;;4.73;73.27;101390.50;1087566;54;1853;-79
2023/12/18 17:56:43;;;;;;;;;;;;;;;4.64;73.37;101399.75;1087328;54;1031;-78
2023/12/18 17:57:44;;;;;;;;;;;;;;;4.65;73.09;101396.16;1087971;54;1368;-78
2023/12/18 17:58:47;;;;;;;;;;;;;;;4.72;72.95;101396.75;1087460;54;1074;-77
2023/12/18 17:59:49;;;;;;;;;;;;;;;4.74;73.01;101401.03;1087355;54;1122;-77
2023/12/18 18:00:58;;;;;;;;;;;;;;;4.76;72.94;101406.28;1087298;46;1102;-77
2023/12/18 18:01:58;;;;;;;;;;;;;;;4.69;73.01;101392.47;1087506;54;1102;-77
2023/12/18 18:03:02;;;;;;;;;;;;;;;4.67;72.91;101400.50;1087527;54;1094;-77
2023/12/18 18:04:03;;;;;;;;;;;;;;;4.68;72.69;101394.22;1087627;54;1129;-77
2023/12/18 18:05:08;;;;;;;;;;;;;;;4.67;72.79;101396.97;1087485;54;1098;-77
2023/12/18 18:06:10;;;;;;;;;;;;;;;4.67;72.83;101404.91;1087589;54;1094;-78
2023/12/18 18:07:14;;;;;;;;;;;;;;;4.68;72.77;101402.19;1087215;47;1017;-77
2023/12/18 18:08:14;;;;;;;;;;;;;;;4.65;72.75;101394.41;1087462;47;1429;-80
2023/12/18 18:09:18;;;;;;;;;;;;;;;4.69;72.49;101389.81;1088066;54;1102;-76
2023/12/18 18:10:18;;;;;;;;;;;;;;;4.71;72.42;101395.91;1088038;47;904;-78
2023/12/18 18:11:22;;;;;;;;;;;;;;;4.69;72.66;101400.41;1087838;47;1150;-78
2023/12/18 18:12:23;;;;;;;;;;;;;;;4.56;73.03;101401.91;1088032;54;1098;-78
2023/12/18 18:13:27;;;;;;;;;;;;;;;4.51;73.07;101400.34;1087903;46;955;-78
2023/12/18 18:14:28;;;;;;;;;;;;;;;4.60;72.97;101408.78;1088204;54;1002;-76
2023/12/18 18:15:32;;;;;;;;;;;;;;;4.63;72.75;101403.34;1087841;54;1858;-78
2023/12/18 18:16:35;;;;;;;;;;;;;;;4.63;72.92;101398.06;1088003;47;1038;-76
2023/12/18 18:17:39;;;;;;;;;;;;;;;4.53;73.00;101403.75;1087611;54;1344;-76
2023/12/18 18:18:40;;;;;;;;;;;;;;;4.58;72.59;101394.75;1087918;46;1074;-77
2023/12/18 18:19:43;;;;;;;;;;;;;;;4.61;72.46;101397.28;1087991;54;1086;-78
2023/12/18 18:20:44;;;;;;;;;;;;;;;4.52;72.77;101390.59;1087833;54;1067;-79
2023/12/18 18:21:48;;;;;;;;;;;;;;;4.53;72.70;101395.81;1088110;54;1055;-77
2023/12/18 18:22:48;;;;;;;;;;;;;;;4.52;72.56;101396.78;1087910;54;1091;-77
2023/12/18 18:23:51;;;;;;;;;;;;;;;4.55;72.62;101392.25;1088354;47;1005;-79
2023/12/18 18:24:53;;;;;;;;;;;;;;;4.49;72.94;101388.97;1088095;46;1081;-78
2023/12/18 18:25:56;;;;;;;;;;;;;;;4.50;72.86;101388.03;1088165;46;1364;-80
2023/12/18 18:26:57;;;;;;;;;;;;;;;4.47;72.99;101388.16;1088244;54;1157;-77
2023/12/18 18:28:00;;;;;;;;;;;;;;;4.45;73.09;101400.63;1088038;47;1242;-76
2023/12/18 18:29:01;;;;;;;;;;;;;;;4.39;73.22;101400.91;1088230;54;1098;-79
2023/12/18 18:30:05;;;;;;;;;;;;;;;4.40;73.32;101396.47;1088236;54;1050;-79
2023/12/18 18:31:06;;;;;;;;;;;;;;;4.34;73.68;101395.84;1088113;54;1063;-78
2023/12/18 18:32:12;;;;;;;;;;;;;;;4.33;73.57;101396.75;1088352;46;1110;-78
2023/12/18 18:33:13;;;;;;;;;;;;;;;4.38;73.55;101407.13;1088278;54;1051;-79
2023/12/18 18:34:18;;;;;;;;;;;;;;;4.30;73.70;101401.34;1088162;47;1229;-79
2023/12/18 18:35:19;;;;;;;;;;;;;;;4.27;73.67;101409.41;1088257;54;1848;-79
2023/12/18 18:36:29;;;;;;;;;;;;;;;4.21;73.68;101403.50;1088261;54;1102;-80
2023/12/18 18:37:30;;;;;;;;;;;;;;;4.16;73.98;101401.97;1088205;54;1351;-79
2023/12/18 18:38:33;;;;;;;;;;;;;;;4.19;73.85;101410.63;1088137;54;1003;-79
2023/12/18 18:39:34;;;;;;;;;;;;;;;4.20;74.14;101409.72;1088068;54;1022;-78
2023/12/18 18:40:38;;;;;;;;;;;;;;;4.19;74.19;101410.63;1087739;47;1210;-78
2023/12/18 18:41:39;;;;;;;;;;;;;;;4.11;74.31;101412.78;1088018;46;1021;-78
2023/12/18 18:42:42;;;;;;;;;;;;;;;4.13;74.17;101418.00;1088062;54;1030;-77
2023/12/18 18:43:43;;;;;;;;;;;;;;;4.14;74.40;101414.41;1088126;47;1066;-75
2023/12/18 18:44:47;;;;;;;;;;;;;;;4.09;74.24;101419.94;1088135;47;1066;-76
2023/12/18 18:45:48;;;;;;;;;;;;;;;4.04;74.31;101412.19;1088174;54;1102;-77
2023/12/18 18:46:53;;;;;;;;;;;;;;;3.99;74.45;101423.91;1088068;54;985;-77
2023/12/18 18:47:56;;;;;;;;;;;;;;;3.99;74.31;101429.19;1088090;54;1408;-77
2023/12/18 18:49:00;;;;;;;;;;;;;;;3.94;74.43;101424.13;1088244;47;885;-77
2023/12/18 18:50:00;;;;;;;;;;;;;;;3.80;74.94;101426.53;1088508;54;1066;-78
2023/12/18 18:51:04;;;;;;;;;;;;;;;3.72;74.88;101427.72;1088452;54;1090;-78
2023/12/18 18:52:06;;;;;;;;;;;;;;;3.71;74.90;101422.47;1088141;47;938;-79
2023/12/18 18:53:10;;;;;;;;;;;;;;;3.57;75.00;101425.72;1088144;54;1102;-79
2023/12/18 18:54:11;;;;;;;;;;;;;;;3.55;75.05;101425.81;1088114;54;1110;-77
2023/12/18 18:55:15;;;;;;;;;;;;;;;3.46;75.39;101420.91;1087929;54;1857;-78
2023/12/18 18:56:15;;;;;;;;;;;;;;;3.51;74.91;101418.06;1088140;54;1077;-78
2023/12/18 18:57:19;;;;;;;;;;;;;;;3.43;75.18;101424.53;1088000;47;1281;-78
2023/12/18 18:58:19;;;;;;;;;;;;;;;3.38;75.19;101413.28;1087999;47;967;-78
2023/12/18 18:59:23;;;;;;;;;;;;;;;3.45;75.06;101419.19;1088047;47;1114;-78
2023/12/18 19:00:24;;;;;;;;;;;;;;;3.48;74.89;101408.50;1088122;54;920;-78
2023/12/18 19:01:27;;;;;;;;;;;;;;;3.41;75.17;101420.22;1088088;47;993;-77
2023/12/18 19:02:28;;;;;;;;;;;;;;;3.38;75.28;101417.72;1088074;47;966;-78
2023/12/18 19:03:34;;;;;;;;;;;;;;;3.39;75.20;101415.00;1088051;47;1062;-79
2023/12/18 19:04:35;;;;;;;;;;;;;;;3.46;74.98;101407.69;1087995;47;1050;-79
2023/12/18 19:05:37;;;;;;;;;;;;;;;3.37;75.03;101405.44;1088059;54;1054;-76
2023/12/18 19:06:40;;;;;;;;;;;;;;;3.36;75.28;101425.72;1088042;54;1062;-79
2023/12/18 19:07:42;;;;;;;;;;;;;;;3.34;75.36;101427.56;1087885;54;1458;-79
2023/12/18 19:08:45;;;;;;;;;;;;;;;3.50;75.32;101413.69;1087913;47;1109;-79
2023/12/18 19:09:46;;;;;;;;;;;;;;;3.56;75.05;101414.31;1088104;46;1042;-79
2023/12/18 19:10:49;;;;;;;;;;;;;;;3.58;75.16;101409.81;1087966;47;1003;-76
2023/12/18 19:11:50;;;;;;;;;;;;;;;3.65;75.06;101406.88;1087855;47;1050;-77
2023/12/18 19:12:54;;;;;;;;;;;;;;;3.68;74.58;101410.25;1087949;54;1086;-77
2023/12/18 19:13:54;;;;;;;;;;;;;;;3.71;74.88;101415.44;1088084;54;1093;-76
2023/12/18 19:14:58;;;;;;;;;;;;;;;3.71;74.57;101415.44;1088068;54;1032;-76
2023/12/18 19:15:59;;;;;;;;;;;;;;;3.73;74.60;101420.63;1088030;54;1857;-76
2023/12/18 19:17:04;;;;;;;;;;;;;;;3.71;74.42;101426.00;1088116;54;882;-78
2023/12/18 19:18:06;;;;;;;;;;;;;;;3.75;74.30;101432.03;1088135;46;1262;-80
2023/12/18 19:19:12;;;;;;;;;;;;;;;3.78;74.27;101434.50;1087876;47;1142;-79
2023/12/18 19:20:14;;;;;;;;;;;;;;;3.73;74.36;101424.13;1087890;54;1122;-77
2023/12/18 19:21:17;;;;;;;;;;;;;;;3.68;74.00;101425.28;1088028;54;952;-78
2023/12/18 19:22:18;;;;;;;;;;;;;;;3.70;73.99;101419.00;1087935;54;1012;-78
2023/12/18 19:23:21;;;;;;;;;;;;;;;3.61;74.07;101424.69;1087966;54;1035;-80
2023/12/18 19:24:22;;;;;;;;;;;;;;;3.68;73.98;101415.53;1088088;46;1028;-78
2023/12/18 19:25:26;;;;;;;;;;;;;;;3.61;74.29;101416.75;1087879;47;975;-79
2023/12/18 19:26:27;;;;;;;;;;;;;;;3.66;74.08;101416.53;1088124;54;1058;-79
2023/12/18 19:27:30;;;;;;;;;;;;;;;3.67;73.89;101400.59;1087964;54;1179;-77
2023/12/18 19:28:31;;;;;;;;;;;;;;;3.69;73.62;101404.03;1088076;54;1188;-79
2023/12/18 19:29:34;;;;;;;;;;;;;;;3.70;73.58;101394.31;1088191;54;1162;-79
2023/12/18 19:30:35;;;;;;;;;;;;;;;3.71;73.89;101401.31;1088052;54;1066;-78